Time;durP1;ratioP1;P1;durP2;ratioP2;P2;SDS_P1;SDS_P2;PMS_P1;PMS_P2;Temp;Humidity;BMP_temperature;BMP_pressure;BME280_temperature;BME280_humidity;BME280_pressure;Samples;Min_cycle;Max_cycle;Signal;HPM_P1;HPM_P2
2022/01/21 00:01:25;;;;;;;;;;;0.70;99.90;;;;;;5072907;28;19951;-50
2022/01/21 00:03:52;;;;;;;;;;;0.60;99.90;;;;;;5072679;28;19985;-50
2022/01/21 00:06:19;;;;;;;;;;;0.70;99.90;;;;;;5075593;28;20452;-50
2022/01/21 00:08:47;;;;;;;;;;;0.70;99.90;;;;;;5067866;28;19979;-50
2022/01/21 00:11:15;;;;;;;;;;;0.70;99.90;;;;;;5068551;28;19929;-59
2022/01/21 00:13:42;;;;;;;;;;;0.70;99.90;;;;;;5066798;28;20012;-50
2022/01/21 00:16:09;;;;;;;;;;;0.80;99.90;;;;;;5076642;28;19928;-51
2022/01/21 00:18:39;;;;;;;;;;;0.80;99.90;;;;;;5068370;28;19924;-50
2022/01/21 00:32:03;;;;;;;;;;;0.70;99.90;;;;;;5053301;28;19928;-50
2022/01/21 00:34:31;;;;;;;;;;;0.60;99.90;;;;;;5053701;28;19925;-50
2022/01/21 00:36:58;;;;;;;;;;;0.70;99.90;;;;;;5052967;28;20345;-50
2022/01/21 00:39:28;;;;;;;;;;;0.80;99.90;;;;;;5054284;28;20444;-49
2022/01/21 00:42:03;;;;;;;;;;;1.00;99.90;;;;;;5061048;28;19924;-50
2022/01/21 00:44:30;;;;;;;;;;;1.10;99.90;;;;;;5069223;28;20008;-53
2022/01/21 00:46:56;;;;;;;;;;;1.20;99.90;;;;;;5070560;28;19925;-50
2022/01/21 00:49:23;;;;;;;;;;;1.00;99.90;;;;;;5068619;28;19951;-51
2022/01/21 00:51:51;;;;;;;;;;;0.90;99.90;;;;;;5069708;28;19925;-50
2022/01/21 00:54:18;;;;;;;;;;;0.80;99.90;;;;;;5069271;28;19966;-51
2022/01/21 00:56:45;;;;;;;;;;;0.80;99.90;;;;;;5069157;28;19947;-50
2022/01/21 00:59:12;;;;;;;;;;;0.80;99.90;;;;;;5070675;28;20386;-50
2022/01/21 01:01:39;;;;;;;;;;;0.70;99.90;;;;;;5069701;28;19925;-50
2022/01/21 01:04:06;;;;;;;;;;;0.70;99.90;;;;;;5070285;28;19924;-50
2022/01/21 01:06:35;;;;;;;;;;;0.70;99.90;;;;;;5069192;28;19929;-50
2022/01/21 01:09:03;;;;;;;;;;;0.70;99.90;;;;;;5069239;28;19924;-50
2022/01/21 01:11:44;;;;;;;;;;;0.70;99.90;;;;;;5069811;28;19925;-51
2022/01/21 01:20:00;;;;;;;;;;;0.70;99.90;;;;;;5071030;28;19973;-50
2022/01/21 01:22:34;;;;;;;;;;;0.70;99.90;;;;;;5070147;28;19925;-52
2022/01/21 01:27:47;;;;;;;;;;;0.80;99.90;;;;;;5092227;28;19974;-50
2022/01/21 01:30:15;;;;;;;;;;;0.80;99.90;;;;;;5074600;28;19951;-51
2022/01/21 01:32:43;;;;;;;;;;;0.80;99.90;;;;;;5071054;28;19935;-50
2022/01/21 01:35:11;;;;;;;;;;;0.80;99.90;;;;;;5073893;28;20238;-50
2022/01/21 01:40:24;;;;;;;;;;;0.80;99.90;;;;;;5050000;28;19939;-50
2022/01/21 01:43:19;;;;;;;;;;;0.70;99.90;;;;;;5055007;28;19925;-50
2022/01/21 01:51:17;;;;;;;;;;;0.70;99.90;;;;;;5059414;28;19988;-50
2022/01/21 01:53:45;;;;;;;;;;;0.60;99.90;;;;;;5058314;28;19987;-50
2022/01/21 02:08:27;;;;;;;;;;;0.60;99.90;;;;;;5058891;28;20374;-49
2022/01/21 02:10:53;;;;;;;;;;;0.60;99.90;;;;;;5057845;28;19925;-50
2022/01/21 02:13:23;;;;;;;;;;;0.80;99.90;;;;;;5059276;28;19947;-49
2022/01/21 02:16:06;;;;;;;;;;;1.00;99.90;;;;;;5059164;28;20357;-49
2022/01/21 02:21:29;;;;;;;;;;;0.90;99.90;;;;;;5059062;28;19928;-49
2022/01/21 02:23:56;;;;;;;;;;;0.90;99.90;;;;;;5058624;28;20386;-49
2022/01/21 02:26:24;;;;;;;;;;;1.00;99.90;;;;;;5058522;28;19925;-50
2022/01/21 02:28:52;;;;;;;;;;;1.10;99.90;;;;;;5057936;28;19986;-49
2022/01/21 02:31:19;;;;;;;;;;;1.10;99.90;;;;;;5057630;28;19951;-50
2022/01/21 02:33:46;;;;;;;;;;;1.00;99.90;;;;;;5057619;28;20268;-49
2022/01/21 02:36:12;;;;;;;;;;;0.90;99.90;;;;;;5059547;28;20325;-50
2022/01/21 02:38:40;;;;;;;;;;;0.90;99.90;;;;;;5057771;28;19928;-49
2022/01/21 02:41:07;;;;;;;;;;;0.90;99.90;;;;;;5057919;28;19933;-49
2022/01/21 02:43:34;;;;;;;;;;;0.80;99.90;;;;;;5058029;28;19981;-49
2022/01/21 02:46:05;;;;;;;;;;;0.70;99.90;;;;;;5058570;28;19974;-50
2022/01/21 02:48:35;;;;;;;;;;;0.70;99.90;;;;;;5057910;28;19924;-50
2022/01/21 02:51:02;;;;;;;;;;;0.70;99.90;;;;;;5057761;28;19924;-50
2022/01/21 02:53:39;;;;;;;;;;;0.80;99.90;;;;;;5057963;28;19925;-50
2022/01/21 02:56:09;;;;;;;;;;;0.80;99.90;;;;;;5054647;28;19924;-50
2022/01/21 02:58:36;;;;;;;;;;;0.90;99.90;;;;;;5037489;28;19933;-50
2022/01/21 03:01:03;;;;;;;;;;;0.70;99.90;;;;;;5056053;28;19978;-50
2022/01/21 03:03:30;;;;;;;;;;;0.70;99.90;;;;;;5054837;28;20002;-50
2022/01/21 03:05:56;;;;;;;;;;;0.50;99.90;;;;;;5054058;28;20344;-50
2022/01/21 03:08:23;;;;;;;;;;;0.50;99.90;;;;;;5054310;28;20271;-50
2022/01/21 03:10:50;;;;;;;;;;;0.50;99.90;;;;;;5044532;28;19929;-50
2022/01/21 03:13:22;;;;;;;;;;;0.50;99.90;;;;;;5056942;28;19925;-50
2022/01/21 03:15:49;;;;;;;;;;;0.50;99.90;;;;;;5056212;28;20417;-50
2022/01/21 03:18:15;;;;;;;;;;;0.60;99.90;;;;;;5054417;28;19925;-50
2022/01/21 03:20:43;;;;;;;;;;;0.60;99.90;;;;;;5054532;28;20209;-50
2022/01/21 03:23:15;;;;;;;;;;;0.50;99.90;;;;;;5053651;28;19974;-49
2022/01/21 03:25:44;;;;;;;;;;;0.50;99.90;;;;;;5054618;28;19925;-50
2022/01/21 03:28:12;;;;;;;;;;;0.40;99.90;;;;;;5055529;28;19980;-51
2022/01/21 03:30:41;;;;;;;;;;;0.40;99.90;;;;;;5054241;28;19986;-50
2022/01/21 03:33:09;;;;;;;;;;;0.40;99.90;;;;;;5053999;28;19925;-50
2022/01/21 03:35:36;;;;;;;;;;;0.40;99.90;;;;;;5053880;28;19978;-50
2022/01/21 03:38:05;;;;;;;;;;;0.50;99.90;;;;;;5054271;28;19995;-50
2022/01/21 03:40:32;;;;;;;;;;;0.50;99.90;;;;;;5053010;28;19924;-50
2022/01/21 03:42:59;;;;;;;;;;;0.50;99.90;;;;;;5054537;28;19925;-50
2022/01/21 03:45:25;;;;;;;;;;;0.50;99.90;;;;;;5054054;28;20009;-50
2022/01/21 03:47:54;;;;;;;;;;;0.50;99.90;;;;;;5054207;28;19971;-50
2022/01/21 03:50:23;;;;;;;;;;;0.50;99.90;;;;;;5053611;28;19978;-50
2022/01/21 03:52:51;;;;;;;;;;;0.50;99.90;;;;;;5073127;28;20294;-50
2022/01/21 03:55:17;;;;;;;;;;;0.50;99.90;;;;;;5064033;28;19925;-50
2022/01/21 03:57:44;;;;;;;;;;;0.50;99.90;;;;;;5053609;28;19924;-50
2022/01/21 04:00:12;;;;;;;;;;;0.70;99.90;;;;;;5050400;28;19971;-50
2022/01/21 04:02:39;;;;;;;;;;;0.80;99.90;;;;;;5053707;28;19970;-49
2022/01/21 04:05:08;;;;;;;;;;;0.70;99.90;;;;;;5041352;28;19925;-50
2022/01/21 04:07:35;;;;;;;;;;;0.70;99.90;;;;;;5053702;28;19932;-50
2022/01/21 04:10:01;;;;;;;;;;;0.60;99.90;;;;;;5053022;28;19925;-50
2022/01/21 04:12:28;;;;;;;;;;;0.60;99.90;;;;;;5048491;28;20345;-50
2022/01/21 04:14:56;;;;;;;;;;;0.70;99.90;;;;;;5053723;28;20315;-50
2022/01/21 04:17:24;;;;;;;;;;;0.70;99.90;;;;;;5052495;28;19928;-50
2022/01/21 04:19:50;;;;;;;;;;;0.70;99.90;;;;;;5053172;28;19925;-50
2022/01/21 04:22:18;;;;;;;;;;;0.80;99.90;;;;;;5053266;28;19925;-49
2022/01/21 04:24:47;;;;;;;;;;;0.80;99.90;;;;;;5053679;28;19971;-50
2022/01/21 04:27:14;;;;;;;;;;;1.00;99.90;;;;;;5053307;28;19925;-50
2022/01/21 04:29:41;;;;;;;;;;;0.90;99.90;;;;;;5053040;28;19928;-50
2022/01/21 04:32:08;;;;;;;;;;;0.90;99.90;;;;;;5053241;28;19929;-51
2022/01/21 04:34:35;;;;;;;;;;;0.80;99.90;;;;;;5088937;22;19928;-49
2022/01/21 04:37:02;;;;;;;;;;;0.70;99.90;;;;;;5068160;28;19929;-49
2022/01/21 04:39:35;;;;;;;;;;;0.60;99.90;;;;;;5065517;28;19928;-49
2022/01/21 04:47:32;;;;;;;;;;;0.40;99.90;;;;;;5069718;28;19943;-48
2022/01/21 04:49:59;;;;;;;;;;;0.40;99.90;;;;;;5067385;28;19925;-52
2022/01/21 04:52:26;;;;;;;;;;;0.40;99.90;;;;;;5070413;28;20287;-49
2022/01/21 04:54:54;;;;;;;;;;;0.40;99.90;;;;;;5069248;28;19925;-50
2022/01/21 04:57:21;;;;;;;;;;;0.40;99.90;;;;;;5069765;28;19953;-49
2022/01/21 04:59:48;;;;;;;;;;;0.60;99.90;;;;;;5070742;28;19924;-49
2022/01/21 05:02:14;;;;;;;;;;;0.70;99.90;;;;;;5071609;28;19970;-49
2022/01/21 05:04:41;;;;;;;;;;;0.70;99.90;;;;;;5071319;28;19924;-50
2022/01/21 05:07:10;;;;;;;;;;;0.70;99.90;;;;;;5069041;28;19924;-48
2022/01/21 05:09:37;;;;;;;;;;;0.70;99.90;;;;;;5071028;28;19925;-50
2022/01/21 05:12:09;;;;;;;;;;;0.70;99.90;;;;;;5069179;28;19958;-47
2022/01/21 05:14:51;;;;;;;;;;;0.60;99.90;;;;;;5071165;28;19924;-48
2022/01/21 05:17:18;;;;;;;;;;;0.60;99.90;;;;;;5064857;28;19924;-48
2022/01/21 05:19:45;;;;;;;;;;;0.60;99.90;;;;;;5071470;28;19924;-49
2022/01/21 05:22:11;;;;;;;;;;;0.60;99.90;;;;;;5071309;28;19924;-47
2022/01/21 05:24:38;;;;;;;;;;;0.70;99.90;;;;;;5063249;28;19986;-48
2022/01/21 05:27:07;;;;;;;;;;;0.70;99.90;;;;;;5071754;28;19977;-48
2022/01/21 05:29:35;;;;;;;;;;;0.50;99.90;;;;;;5071204;28;19947;-48
2022/01/21 05:32:03;;;;;;;;;;;0.60;99.90;;;;;;5071036;28;20385;-48
2022/01/21 05:34:30;;;;;;;;;;;0.60;99.90;;;;;;5070263;28;19994;-49
2022/01/21 05:36:56;;;;;;;;;;;0.60;99.90;;;;;;5071124;28;20339;-48
2022/01/21 05:39:23;;;;;;;;;;;0.60;99.90;;;;;;5070528;28;20374;-48
2022/01/21 05:41:51;;;;;;;;;;;0.60;99.90;;;;;;5069887;28;19931;-48
2022/01/21 05:46:23;;;;;;;;;;;0.50;99.90;;;;;;5067601;28;19928;-47
2022/01/21 05:47:08;;;;;;;;;;;0.50;99.90;;;;;;5065416;28;19972;-48
2022/01/21 05:49:35;;;;;;;;;;;0.20;99.90;;;;;;5070916;28;19931;-48
2022/01/21 05:52:03;;;;;;;;;;;0.20;99.90;;;;;;5066923;28;20032;-48
2022/01/21 05:54:31;;;;;;;;;;;0.10;99.90;;;;;;5060364;28;19962;-48
2022/01/21 05:56:58;;;;;;;;;;;0.10;99.90;;;;;;5069474;28;20386;-48
2022/01/21 05:59:26;;;;;;;;;;;0.00;99.90;;;;;;5065328;28;19925;-48
2022/01/21 06:01:53;;;;;;;;;;;0.00;99.90;;;;;;5068074;28;20005;-48
2022/01/21 06:04:20;;;;;;;;;;;-0.10;99.90;;;;;;5056750;28;19925;-48
2022/01/21 06:06:46;;;;;;;;;;;0.00;99.90;;;;;;5065288;28;19970;-48
2022/01/21 06:09:13;;;;;;;;;;;0.00;99.90;;;;;;5054659;28;19987;-48
2022/01/21 06:11:40;;;;;;;;;;;0.00;99.90;;;;;;5070319;28;19931;-48
2022/01/21 06:14:07;;;;;;;;;;;0.00;99.90;;;;;;5061504;28;19924;-47
2022/01/21 06:16:38;;;;;;;;;;;0.10;99.90;;;;;;5065302;28;19929;-48
2022/01/21 06:19:05;;;;;;;;;;;0.10;99.90;;;;;;5062476;28;19925;-48
2022/01/21 06:21:31;;;;;;;;;;;0.30;99.90;;;;;;5067334;28;20009;-47
2022/01/21 06:23:58;;;;;;;;;;;0.50;99.90;;;;;;5056776;28;19928;-48
2022/01/21 06:26:25;;;;;;;;;;;0.40;99.90;;;;;;5053874;28;19925;-47
2022/01/21 06:28:52;;;;;;;;;;;0.20;99.90;;;;;;5067708;28;20396;-48
2022/01/21 06:31:19;;;;;;;;;;;0.10;99.90;;;;;;5065230;28;20405;-48
2022/01/21 06:33:47;;;;;;;;;;;0.00;99.90;;;;;;5074934;28;19925;-48
2022/01/21 06:36:14;;;;;;;;;;;0.00;99.90;;;;;;5072558;28;20394;-48
2022/01/21 06:38:41;;;;;;;;;;;-0.10;99.90;;;;;;5072855;28;19970;-49
2022/01/21 06:41:08;;;;;;;;;;;-0.10;99.90;;;;;;5063103;28;19928;-47
2022/01/21 06:43:34;;;;;;;;;;;-0.20;99.90;;;;;;5068220;28;19970;-48
2022/01/21 06:46:01;;;;;;;;;;;-0.20;99.90;;;;;;5073589;28;19939;-48
2022/01/21 06:48:28;;;;;;;;;;;-0.20;99.90;;;;;;5071474;28;19950;-48
2022/01/21 06:50:57;;;;;;;;;;;-0.30;99.90;;;;;;5073298;28;19924;-48
2022/01/21 06:53:24;;;;;;;;;;;-0.30;99.90;;;;;;5072987;28;19931;-50
2022/01/21 06:55:51;;;;;;;;;;;-0.30;99.90;;;;;;5070835;28;19924;-49
2022/01/21 06:58:18;;;;;;;;;;;-0.30;99.90;;;;;;5065381;28;19929;-49
2022/01/21 07:00:45;;;;;;;;;;;-0.40;99.90;;;;;;5059502;28;19929;-49
2022/01/21 07:03:11;;;;;;;;;;;-0.40;99.90;;;;;;5066385;28;20006;-49
2022/01/21 07:05:38;;;;;;;;;;;-0.40;99.90;;;;;;5062547;28;19932;-51
2022/01/21 07:08:11;;;;;;;;;;;-0.40;99.90;;;;;;5062896;28;19994;-50
2022/01/21 07:10:38;;;;;;;;;;;-0.40;99.90;;;;;;5070961;28;19936;-50
2022/01/21 07:13:08;;;;;;;;;;;-0.30;99.90;;;;;;5071608;28;19952;-51
2022/01/21 07:15:35;;;;;;;;;;;-0.30;99.90;;;;;;5072597;28;19974;-50
2022/01/21 07:18:03;;;;;;;;;;;-0.30;99.90;;;;;;5067152;28;20016;-50
2022/01/21 07:20:30;;;;;;;;;;;-0.30;99.90;;;;;;5072268;28;20455;-49
2022/01/21 07:22:57;;;;;;;;;;;-0.30;99.90;;;;;;5073328;28;20124;-49
2022/01/21 07:25:27;;;;;;;;;;;-0.40;99.90;;;;;;5067895;28;19925;-49
2022/01/21 07:27:54;;;;;;;;;;;-0.30;99.90;;;;;;5064842;28;19970;-50
2022/01/21 07:30:20;;;;;;;;;;;-0.20;99.90;;;;;;5071642;28;19933;-51
2022/01/21 07:32:47;;;;;;;;;;;-0.20;99.90;;;;;;5072494;28;19924;-49
2022/01/21 07:35:14;;;;;;;;;;;-0.20;99.90;;;;;;5069937;28;19962;-49
2022/01/21 07:37:42;;;;;;;;;;;-0.20;99.90;;;;;;5070880;28;19928;-50
2022/01/21 07:40:09;;;;;;;;;;;-0.20;99.90;;;;;;5068631;28;19947;-50
2022/01/21 07:42:39;;;;;;;;;;;-0.30;99.90;;;;;;5068434;28;20474;-48
2022/01/21 07:45:06;;;;;;;;;;;-0.30;99.90;;;;;;5064892;28;20335;-50
2022/01/21 07:47:33;;;;;;;;;;;-0.30;99.90;;;;;;5062888;28;19928;-51
2022/01/21 07:50:00;;;;;;;;;;;-0.30;99.90;;;;;;5063472;28;19925;-49
2022/01/21 07:52:26;;;;;;;;;;;-0.30;99.90;;;;;;5071711;28;19928;-50
2022/01/21 07:54:53;;;;;;;;;;;-0.30;99.90;;;;;;5071657;28;19925;-50
2022/01/21 07:57:20;;;;;;;;;;;-0.30;99.90;;;;;;5070646;28;19933;-48
2022/01/21 07:59:48;;;;;;;;;;;-0.30;99.90;;;;;;5071020;28;20015;-51
2022/01/21 08:02:15;;;;;;;;;;;-0.30;99.90;;;;;;5071900;28;19985;-51
2022/01/21 08:04:42;;;;;;;;;;;-0.20;99.90;;;;;;5071792;28;20402;-51
2022/01/21 08:07:10;;;;;;;;;;;-0.10;99.90;;;;;;5072569;28;19928;-50
2022/01/21 08:09:37;;;;;;;;;;;0.10;99.90;;;;;;5070788;28;19970;-50
2022/01/21 08:12:04;;;;;;;;;;;0.20;99.90;;;;;;5071198;28;19928;-50
2022/01/21 08:14:30;;;;;;;;;;;0.40;99.90;;;;;;5071308;28;20404;-50
2022/01/21 08:17:01;;;;;;;;;;;0.50;99.90;;;;;;5069150;28;19924;-51
2022/01/21 08:19:28;;;;;;;;;;;0.70;99.90;;;;;;5068230;28;19935;-51
2022/01/21 08:21:54;;;;;;;;;;;0.80;99.90;;;;;;5070942;28;19970;-50
2022/01/21 08:24:21;;;;;;;;;;;1.00;99.90;;;;;;5070690;28;20001;-50
2022/01/21 08:26:48;;;;;;;;;;;1.00;99.90;;;;;;5070265;28;19979;-50
2022/01/21 08:29:15;;;;;;;;;;;1.40;99.90;;;;;;5070666;28;19986;-49
2022/01/21 08:31:41;;;;;;;;;;;1.70;99.90;;;;;;5062490;28;21068;-50
2022/01/21 08:34:10;;;;;;;;;;;1.70;99.90;;;;;;5063220;28;19993;-48
2022/01/21 08:36:38;;;;;;;;;;;1.60;99.90;;;;;;5063138;28;20371;-48
2022/01/21 08:39:05;;;;;;;;;;;1.70;99.90;;;;;;5059730;28;19928;-47
2022/01/21 08:41:32;;;;;;;;;;;1.80;99.90;;;;;;5061611;28;19978;-50
2022/01/21 08:43:59;;;;;;;;;;;2.00;99.90;;;;;;5060783;28;20401;-47
2022/01/21 08:46:26;;;;;;;;;;;2.30;99.90;;;;;;5060084;28;19998;-47
2022/01/21 08:48:53;;;;;;;;;;;2.70;99.90;;;;;;5060900;28;19928;-46
2022/01/21 08:51:25;;;;;;;;;;;3.30;99.90;;;;;;5059600;28;19925;-48
2022/01/21 08:53:52;;;;;;;;;;;3.90;99.90;;;;;;5060494;28;19955;-48
2022/01/21 08:56:20;;;;;;;;;;;4.30;99.90;;;;;;5066075;28;19924;-48
2022/01/21 08:58:48;;;;;;;;;;;4.60;99.90;;;;;;5070250;28;19929;-47
2022/01/21 09:01:16;;;;;;;;;;;4.70;99.90;;;;;;5083866;28;19928;-48
2022/01/21 09:03:43;;;;;;;;;;;4.60;99.90;;;;;;5082468;28;19924;-47
2022/01/21 09:06:11;;;;;;;;;;;4.40;99.90;;;;;;5070664;28;19928;-47
2022/01/21 09:08:41;;;;;;;;;;;4.40;99.90;;;;;;5069781;28;19931;-47
2022/01/21 09:11:08;;;;;;;;;;;4.30;99.90;;;;;;5070416;28;20029;-47
2022/01/21 09:13:40;;;;;;;;;;;4.40;99.90;;;;;;5070985;28;19925;-49
2022/01/21 09:16:07;;;;;;;;;;;4.50;99.90;;;;;;5071018;28;19935;-48
2022/01/21 09:18:45;;;;;;;;;;;4.90;99.90;;;;;;5070284;28;19925;-48
2022/01/21 09:21:12;;;;;;;;;;;5.60;99.90;;;;;;5071208;28;20412;-49
2022/01/21 09:23:40;;;;;;;;;;;6.50;99.90;;;;;;5070660;28;19928;-49
2022/01/21 09:26:07;;;;;;;;;;;7.00;99.90;;;;;;5070669;28;20455;-48
2022/01/21 09:28:34;;;;;;;;;;;6.60;99.90;;;;;;5069306;28;20004;-48
2022/01/21 09:31:01;;;;;;;;;;;6.20;99.90;;;;;;5071416;28;20279;-48
2022/01/21 09:33:27;;;;;;;;;;;5.70;99.90;;;;;;5070950;28;19928;-48
2022/01/21 09:35:54;;;;;;;;;;;5.40;99.90;;;;;;5070954;28;19946;-49
2022/01/21 09:38:21;;;;;;;;;;;4.60;99.90;;;;;;5069140;28;19925;-47
2022/01/21 09:40:50;;;;;;;;;;;4.20;99.90;;;;;;5069844;28;19929;-49
2022/01/21 09:43:18;;;;;;;;;;;4.00;99.90;;;;;;5070686;28;19978;-49
2022/01/21 09:45:47;;;;;;;;;;;3.80;99.90;;;;;;5070873;28;19924;-49
2022/01/21 09:48:21;;;;;;;;;;;3.60;99.90;;;;;;5070339;28;19928;-48
2022/01/21 09:50:49;;;;;;;;;;;3.50;99.90;;;;;;5068456;28;19970;-49
2022/01/21 09:53:17;;;;;;;;;;;3.10;99.90;;;;;;5069864;28;19972;-47
2022/01/21 09:55:44;;;;;;;;;;;3.00;99.90;;;;;;5071078;28;20318;-48
2022/01/21 09:58:12;;;;;;;;;;;2.60;99.90;;;;;;5070337;28;19925;-48
2022/01/21 10:00:40;;;;;;;;;;;2.70;99.90;;;;;;5070300;28;20371;-48
2022/01/21 10:03:08;;;;;;;;;;;2.60;99.90;;;;;;5068289;28;19974;-48
2022/01/21 10:05:34;;;;;;;;;;;2.50;99.90;;;;;;5073396;28;19925;-48
2022/01/21 10:08:02;;;;;;;;;;;2.40;99.90;;;;;;5073678;28;19970;-48
2022/01/21 10:10:29;;;;;;;;;;;2.60;99.90;;;;;;5073831;28;19924;-48
2022/01/21 10:13:02;;;;;;;;;;;2.60;99.90;;;;;;5071421;28;19925;-48
2022/01/21 10:15:30;;;;;;;;;;;2.30;99.90;;;;;;5073717;28;19924;-49
2022/01/21 10:18:01;;;;;;;;;;;2.10;99.90;;;;;;5074577;28;19929;-48
2022/01/21 10:20:28;;;;;;;;;;;2.00;99.90;;;;;;5078585;28;19928;-46
2022/01/21 10:22:59;;;;;;;;;;;2.10;99.90;;;;;;5074852;28;19929;-47
2022/01/21 10:25:26;;;;;;;;;;;2.30;99.90;;;;;;5074684;28;20007;-48
2022/01/21 10:27:53;;;;;;;;;;;2.30;99.90;;;;;;5074301;28;19989;-46
2022/01/21 10:30:20;;;;;;;;;;;2.30;99.90;;;;;;5073691;28;19924;-47
2022/01/21 10:32:48;;;;;;;;;;;2.10;99.90;;;;;;5078251;28;19932;-48
2022/01/21 10:35:22;;;;;;;;;;;1.90;99.90;;;;;;5085045;28;20476;-47
2022/01/21 10:37:49;;;;;;;;;;;1.90;99.90;;;;;;5073029;28;19977;-47
2022/01/21 10:40:18;;;;;;;;;;;1.90;99.90;;;;;;5072254;28;19924;-48
2022/01/21 10:42:45;;;;;;;;;;;2.00;99.90;;;;;;5093534;22;19925;-53
2022/01/21 10:45:12;;;;;;;;;;;2.20;99.90;;;;;;5068883;28;20003;-52
2022/01/21 10:47:40;;;;;;;;;;;2.20;99.90;;;;;;5071780;28;19932;-51
2022/01/21 10:50:10;;;;;;;;;;;2.20;99.90;;;;;;5071106;28;19929;-51
2022/01/21 10:52:38;;;;;;;;;;;2.40;99.90;;;;;;5071138;28;19935;-50
2022/01/21 10:55:06;;;;;;;;;;;2.30;99.90;;;;;;5070499;28;19929;-50
2022/01/21 10:57:36;;;;;;;;;;;2.40;99.90;;;;;;5067975;28;19932;-50
2022/01/21 11:00:05;;;;;;;;;;;2.40;99.90;;;;;;5074935;28;20010;-51
2022/01/21 11:02:34;;;;;;;;;;;2.40;99.90;;;;;;5075147;28;19925;-51
2022/01/21 11:05:04;;;;;;;;;;;2.40;99.90;;;;;;5073675;28;19963;-51
2022/01/21 11:07:49;;;;;;;;;;;2.40;99.90;;;;;;5067979;28;19924;-51
2022/01/21 11:10:35;;;;;;;;;;;2.40;99.90;;;;;;5085532;28;19947;-51
2022/01/21 11:13:03;;;;;;;;;;;2.20;99.90;;;;;;5082480;28;19946;-50
2022/01/21 11:15:38;;;;;;;;;;;2.00;99.90;;;;;;5087599;28;19986;-50
2022/01/21 11:18:06;;;;;;;;;;;1.90;99.90;;;;;;5066885;28;20018;-50
2022/01/21 11:20:36;;;;;;;;;;;2.10;99.90;;;;;;5070112;28;19924;-50
2022/01/21 11:23:05;;;;;;;;;;;2.10;99.90;;;;;;5068126;28;19924;-51
2022/01/21 11:25:41;;;;;;;;;;;2.20;99.90;;;;;;5074130;28;20508;-51
2022/01/21 11:28:08;;;;;;;;;;;2.30;99.90;;;;;;5067989;28;20350;-51
2022/01/21 11:30:35;;;;;;;;;;;2.10;99.90;;;;;;5058582;28;19932;-50
2022/01/21 11:33:02;;;;;;;;;;;2.20;99.90;;;;;;5068827;28;19925;-51
2022/01/21 11:35:28;;;;;;;;;;;2.00;99.90;;;;;;5063134;28;19929;-51
2022/01/21 11:37:55;;;;;;;;;;;1.80;99.90;;;;;;5064142;28;19989;-51
2022/01/21 11:40:24;;;;;;;;;;;1.90;99.90;;;;;;5063851;28;19924;-51
2022/01/21 11:42:51;;;;;;;;;;;1.80;99.90;;;;;;5062112;28;19925;-51
2022/01/21 11:45:31;;;;;;;;;;;1.80;99.90;;;;;;5067254;28;19928;-50
2022/01/21 11:48:50;;;;;;;;;;;2.00;99.90;;;;;;5062726;28;19975;-50
2022/01/21 11:50:49;;;;;;;;;;;2.20;99.90;;;;;;5064870;28;19934;-51
2022/01/21 11:53:16;;;;;;;;;;;2.10;99.90;;;;;;5061492;28;19924;-51
2022/01/21 11:55:46;;;;;;;;;;;2.10;99.90;;;;;;5063060;28;19976;-51
2022/01/21 11:58:15;;;;;;;;;;;2.10;99.90;;;;;;5062053;28;19924;-51
2022/01/21 12:00:41;;;;;;;;;;;2.00;99.90;;;;;;5062795;28;19939;-50
2022/01/21 12:03:12;;;;;;;;;;;2.00;99.90;;;;;;5063026;28;19958;-51
2022/01/21 12:05:39;;;;;;;;;;;2.20;99.90;;;;;;5062269;28;19990;-51
2022/01/21 12:08:06;;;;;;;;;;;2.40;99.90;;;;;;5062114;28;19993;-51
2022/01/21 12:10:34;;;;;;;;;;;2.40;99.90;;;;;;5064984;28;19931;-51
2022/01/21 12:13:11;;;;;;;;;;;2.50;99.90;;;;;;5061558;28;20405;-51
2022/01/21 12:16:19;;;;;;;;;;;2.70;99.90;;;;;;5062184;28;20031;-51
2022/01/21 12:19:10;;;;;;;;;;;2.90;99.90;;;;;;5062524;28;19924;-51
2022/01/21 12:21:41;;;;;;;;;;;3.00;99.90;;;;;;5060435;28;20441;-51
2022/01/21 12:24:08;;;;;;;;;;;3.10;99.90;;;;;;5063306;28;19924;-51
2022/01/21 12:26:35;;;;;;;;;;;3.00;99.90;;;;;;5062640;28;19929;-51
2022/01/21 12:29:22;;;;;;;;;;;2.90;99.90;;;;;;5067379;28;19954;-51
2022/01/21 12:31:57;;;;;;;;;;;2.80;99.90;;;;;;5061919;28;19928;-50
2022/01/21 12:34:24;;;;;;;;;;;2.90;99.90;;;;;;5062243;28;20336;-51
2022/01/21 12:36:53;;;;;;;;;;;2.70;99.90;;;;;;5064141;28;19947;-51
2022/01/21 12:39:35;;;;;;;;;;;2.60;99.90;;;;;;5060554;28;20012;-51
2022/01/21 12:42:23;;;;;;;;;;;2.90;99.90;;;;;;5060637;28;20386;-51
2022/01/21 12:44:53;;;;;;;;;;;3.10;99.90;;;;;;5062909;28;20011;-50
2022/01/21 12:47:30;;;;;;;;;;;2.90;99.90;;;;;;5066087;28;19943;-50
2022/01/21 12:49:58;;;;;;;;;;;2.90;99.90;;;;;;5066031;28;19928;-50
2022/01/21 12:52:44;;;;;;;;;;;3.00;99.90;;;;;;5064194;28;19924;-53
2022/01/21 12:57:55;;;;;;;;;;;3.20;99.90;;;;;;5070057;28;20309;-51
2022/01/21 13:00:24;;;;;;;;;;;3.20;99.90;;;;;;5069312;28;19971;-50
2022/01/21 13:02:52;;;;;;;;;;;3.30;99.90;;;;;;5053027;28;19928;-50
2022/01/21 13:05:22;;;;;;;;;;;3.30;99.90;;;;;;5064689;28;19928;-50
2022/01/21 13:07:52;;;;;;;;;;;3.20;99.90;;;;;;5063598;28;19979;-51
2022/01/21 13:10:23;;;;;;;;;;;3.20;99.90;;;;;;5064720;28;19963;-50
2022/01/21 13:13:13;;;;;;;;;;;3.10;99.90;;;;;;5062404;28;20050;-50
2022/01/21 13:15:42;;;;;;;;;;;3.00;99.90;;;;;;5068698;28;19929;-50
2022/01/21 13:18:10;;;;;;;;;;;3.00;99.90;;;;;;5071648;28;19941;-51
2022/01/21 13:20:38;;;;;;;;;;;3.10;99.90;;;;;;5072041;28;20061;-50
2022/01/21 13:23:05;;;;;;;;;;;2.80;99.90;;;;;;5072834;28;19932;-50
2022/01/21 13:25:33;;;;;;;;;;;2.80;99.90;;;;;;5073639;28;19924;-50
2022/01/21 13:28:01;;;;;;;;;;;2.80;99.90;;;;;;5055049;28;20033;-50
2022/01/21 13:30:29;;;;;;;;;;;2.90;99.90;;;;;;5067790;28;20454;-50
2022/01/21 13:33:01;;;;;;;;;;;2.90;99.90;;;;;;5085701;28;19954;-50
2022/01/21 13:35:29;;;;;;;;;;;2.70;99.90;;;;;;5083051;28;20463;-50
2022/01/21 13:38:12;;;;;;;;;;;2.70;99.90;;;;;;5071862;28;19928;-50
2022/01/21 13:40:41;;;;;;;;;;;2.40;99.90;;;;;;5064794;28;19951;-50
2022/01/21 13:43:09;;;;;;;;;;;2.40;99.90;;;;;;5061397;28;19925;-50
2022/01/21 13:45:36;;;;;;;;;;;2.40;99.90;;;;;;5066722;28;19924;-51
2022/01/21 13:48:08;;;;;;;;;;;2.30;99.90;;;;;;5075164;28;19924;-50
2022/01/21 13:50:35;;;;;;;;;;;2.30;99.90;;;;;;5072934;28;20341;-51
2022/01/21 13:53:03;;;;;;;;;;;2.40;99.90;;;;;;5072178;28;19925;-51
2022/01/21 13:55:31;;;;;;;;;;;2.40;99.90;;;;;;5071830;28;19970;-50
2022/01/21 13:57:58;;;;;;;;;;;2.70;99.90;;;;;;5072322;28;19931;-49
2022/01/21 14:00:29;;;;;;;;;;;2.80;99.90;;;;;;5066644;28;19940;-50
2022/01/21 14:03:08;;;;;;;;;;;2.80;99.90;;;;;;5052454;28;19948;-50
2022/01/21 14:05:42;;;;;;;;;;;2.70;99.90;;;;;;5067754;28;19925;-50
2022/01/21 14:08:10;;;;;;;;;;;2.80;99.90;;;;;;5072197;28;19978;-50
2022/01/21 14:10:37;;;;;;;;;;;2.70;99.90;;;;;;5072166;28;20076;-55
2022/01/21 14:13:05;;;;;;;;;;;2.70;99.90;;;;;;5072151;28;19929;-50
2022/01/21 14:15:31;;;;;;;;;;;2.50;99.90;;;;;;5072091;28;19928;-50
2022/01/21 14:17:59;;;;;;;;;;;2.50;99.90;;;;;;5072258;28;19931;-49
2022/01/21 14:20:28;;;;;;;;;;;2.70;99.90;;;;;;5071896;28;19930;-50
2022/01/21 14:22:54;;;;;;;;;;;2.50;99.90;;;;;;5071777;28;19925;-49
2022/01/21 14:25:21;;;;;;;;;;;2.40;99.90;;;;;;5072227;28;19978;-50
2022/01/21 14:27:48;;;;;;;;;;;2.30;99.90;;;;;;5070568;28;19928;-50
2022/01/21 14:30:16;;;;;;;;;;;2.40;99.90;;;;;;5067255;28;19989;-50
2022/01/21 14:32:48;;;;;;;;;;;2.50;99.90;;;;;;5071736;28;19924;-50
2022/01/21 14:35:16;;;;;;;;;;;2.60;99.90;;;;;;5072028;28;19925;-50
2022/01/21 14:37:45;;;;;;;;;;;2.60;99.90;;;;;;5072302;28;19928;-51
2022/01/21 14:40:12;;;;;;;;;;;2.70;99.90;;;;;;5071578;28;19933;-50
2022/01/21 14:42:39;;;;;;;;;;;2.70;99.90;;;;;;5071844;28;20333;-49
2022/01/21 14:45:17;;;;;;;;;;;2.70;99.90;;;;;;5072007;28;19924;-49
2022/01/21 14:47:44;;;;;;;;;;;2.50;99.90;;;;;;5071944;28;19925;-50
2022/01/21 14:50:13;;;;;;;;;;;2.60;99.90;;;;;;5070840;28;20275;-50
2022/01/21 14:52:42;;;;;;;;;;;2.60;99.90;;;;;;5068529;28;19924;-50
2022/01/21 14:55:13;;;;;;;;;;;2.50;99.90;;;;;;5055293;28;19924;-49
2022/01/21 14:57:45;;;;;;;;;;;2.50;99.90;;;;;;5069736;28;19974;-49
2022/01/21 15:00:12;;;;;;;;;;;2.40;99.90;;;;;;5075060;28;19970;-49
2022/01/21 15:02:40;;;;;;;;;;;2.40;99.90;;;;;;5075212;28;19928;-49
2022/01/21 15:05:11;;;;;;;;;;;2.30;99.90;;;;;;5075097;28;19986;-49
2022/01/21 15:07:38;;;;;;;;;;;2.10;99.90;;;;;;5075405;28;19924;-49
2022/01/21 15:10:22;;;;;;;;;;;2.00;99.90;;;;;;5073004;28;19971;-49
2022/01/21 15:15:46;;;;;;;;;;;1.70;99.90;;;;;;5050381;28;20422;-50
2022/01/21 15:18:14;;;;;;;;;;;1.50;99.90;;;;;;5073996;28;19978;-50
2022/01/21 15:20:42;;;;;;;;;;;1.40;99.90;;;;;;5074687;28;19924;-50
2022/01/21 15:23:10;;;;;;;;;;;1.30;99.90;;;;;;5074830;28;19924;-50
2022/01/21 15:25:38;;;;;;;;;;;1.30;99.90;;;;;;5074906;28;19925;-51
2022/01/21 15:28:05;;;;;;;;;;;1.30;99.90;;;;;;5073962;28;19978;-51
2022/01/21 15:30:33;;;;;;;;;;;1.20;99.90;;;;;;5074804;28;19929;-50
2022/01/21 15:33:00;;;;;;;;;;;1.40;99.90;;;;;;5074566;28;19990;-51